sensor_id;sensor_type;location;lat;lon;timestamp;temperature;humidity
23697;DHT22;48864;50.820;4.400;2022-07-10T00:01:04;16.60;99.90
23697;DHT22;48864;50.820;4.400;2022-07-10T00:03:32;16.70;99.90
23697;DHT22;48864;50.820;4.400;2022-07-10T00:05:58;16.60;99.90
23697;DHT22;48864;50.820;4.400;2022-07-10T00:08:23;16.60;99.90
23697;DHT22;48864;50.820;4.400;2022-07-10T00:10:49;16.60;99.90
23697;DHT22;48864;50.820;4.400;2022-07-10T00:13:14;16.60;99.90
23697;DHT22;48864;50.820;4.400;2022-07-10T00:15:40;16.40;99.90
23697;DHT22;48864;50.820;4.400;2022-07-10T00:18:05;16.30;99.90
23697;DHT22;48864;50.820;4.400;2022-07-10T00:20:31;16.20;99.90
23697;DHT22;48864;50.820;4.400;2022-07-10T00:22:57;16.30;99.90
23697;DHT22;48864;50.820;4.400;2022-07-10T00:25:23;16.30;99.90
23697;DHT22;48864;50.820;4.400;2022-07-10T00:27:48;16.20;99.90
23697;DHT22;48864;50.820;4.400;2022-07-10T00:30:14;16.20;99.90
23697;DHT22;48864;50.820;4.400;2022-07-10T00:32:39;16.20;99.90
23697;DHT22;48864;50.820;4.400;2022-07-10T00:35:06;16.30;99.90
23697;DHT22;48864;50.820;4.400;2022-07-10T00:37:32;16.40;99.90
23697;DHT22;48864;50.820;4.400;2022-07-10T00:39:58;16.30;99.90
23697;DHT22;48864;50.820;4.400;2022-07-10T00:42:26;16.30;99.90
23697;DHT22;48864;50.820;4.400;2022-07-10T00:44:51;16.20;99.90
23697;DHT22;48864;50.820;4.400;2022-07-10T00:47:17;16.30;99.90
23697;DHT22;48864;50.820;4.400;2022-07-10T00:49:45;16.30;99.90
23697;DHT22;48864;50.820;4.400;2022-07-10T00:52:15;16.40;99.90
23697;DHT22;48864;50.820;4.400;2022-07-10T00:54:43;16.40;99.90
23697;DHT22;48864;50.820;4.400;2022-07-10T00:57:10;16.40;99.90
23697;DHT22;48864;50.820;4.400;2022-07-10T00:59:37;16.40;99.90
23697;DHT22;48864;50.820;4.400;2022-07-10T01:02:03;16.40;99.90
23697;DHT22;48864;50.820;4.400;2022-07-10T01:04:29;16.40;99.90
23697;DHT22;48864;50.820;4.400;2022-07-10T01:06:55;16.20;99.90
23697;DHT22;48864;50.820;4.400;2022-07-10T01:09:21;16.30;99.90
23697;DHT22;48864;50.820;4.400;2022-07-10T01:11:47;16.30;99.90
23697;DHT22;48864;50.820;4.400;2022-07-10T01:14:13;16.00;99.90
23697;DHT22;48864;50.820;4.400;2022-07-10T01:16:40;16.10;99.90
23697;DHT22;48864;50.820;4.400;2022-07-10T01:19:06;16.00;99.90
23697;DHT22;48864;50.820;4.400;2022-07-10T01:21:33;16.00;99.90
23697;DHT22;48864;50.820;4.400;2022-07-10T01:24:01;16.10;99.90
23697;DHT22;48864;50.820;4.400;2022-07-10T01:26:29;16.00;99.90
23697;DHT22;48864;50.820;4.400;2022-07-10T01:28:55;15.90;99.90
23697;DHT22;48864;50.820;4.400;2022-07-10T01:31:27;16.00;99.90
23697;DHT22;48864;50.820;4.400;2022-07-10T01:33:54;15.90;99.90
23697;DHT22;48864;50.820;4.400;2022-07-10T01:36:21;15.90;99.90
23697;DHT22;48864;50.820;4.400;2022-07-10T01:38:47;15.90;99.90
23697;DHT22;48864;50.820;4.400;2022-07-10T01:41:13;15.80;99.90
23697;DHT22;48864;50.820;4.400;2022-07-10T01:43:39;15.80;99.90
23697;DHT22;48864;50.820;4.400;2022-07-10T01:46:10;15.80;99.90
23697;DHT22;48864;50.820;4.400;2022-07-10T01:48:39;15.80;99.90
23697;DHT22;48864;50.820;4.400;2022-07-10T01:51:09;15.80;99.90
23697;DHT22;48864;50.820;4.400;2022-07-10T01:53:35;15.90;99.90
23697;DHT22;48864;50.820;4.400;2022-07-10T01:56:04;15.70;99.90
23697;DHT22;48864;50.820;4.400;2022-07-10T01:58:30;15.70;99.90
23697;DHT22;48864;50.820;4.400;2022-07-10T02:00:56;15.70;99.90
23697;DHT22;48864;50.820;4.400;2022-07-10T02:03:22;15.70;99.90
23697;DHT22;48864;50.820;4.400;2022-07-10T02:06:06;15.70;99.90
23697;DHT22;48864;50.820;4.400;2022-07-10T02:08:32;15.60;99.90
23697;DHT22;48864;50.820;4.400;2022-07-10T02:10:58;15.80;99.90
23697;DHT22;48864;50.820;4.400;2022-07-10T02:13:24;15.90;99.90
23697;DHT22;48864;50.820;4.400;2022-07-10T02:15:56;15.90;99.90
23697;DHT22;48864;50.820;4.400;2022-07-10T02:18:22;15.90;99.90
23697;DHT22;48864;50.820;4.400;2022-07-10T02:20:48;15.90;99.90
23697;DHT22;48864;50.820;4.400;2022-07-10T02:23:13;15.90;99.90
23697;DHT22;48864;50.820;4.400;2022-07-10T02:25:39;15.80;99.90
23697;DHT22;48864;50.820;4.400;2022-07-10T02:28:05;15.80;99.90
23697;DHT22;48864;50.820;4.400;2022-07-10T02:30:31;15.80;99.90
23697;DHT22;48864;50.820;4.400;2022-07-10T02:35:27;15.70;99.90
23697;DHT22;48864;50.820;4.400;2022-07-10T02:37:53;15.80;99.90
23697;DHT22;48864;50.820;4.400;2022-07-10T02:40:19;15.90;99.90
23697;DHT22;48864;50.820;4.400;2022-07-10T02:42:45;15.80;99.90
23697;DHT22;48864;50.820;4.400;2022-07-10T02:45:10;15.70;99.90
23697;DHT22;48864;50.820;4.400;2022-07-10T02:47:36;15.50;99.90
23697;DHT22;48864;50.820;4.400;2022-07-10T02:50:02;15.50;99.90
23697;DHT22;48864;50.820;4.400;2022-07-10T02:52:28;15.60;99.90
23697;DHT22;48864;50.820;4.400;2022-07-10T02:54:56;15.70;99.90
23697;DHT22;48864;50.820;4.400;2022-07-10T02:57:22;15.80;99.90
23697;DHT22;48864;50.820;4.400;2022-07-10T02:59:47;15.70;99.90
23697;DHT22;48864;50.820;4.400;2022-07-10T03:02:19;15.70;99.90
23697;DHT22;48864;50.820;4.400;2022-07-10T03:04:44;15.60;99.90
23697;DHT22;48864;50.820;4.400;2022-07-10T03:07:10;15.60;99.90
23697;DHT22;48864;50.820;4.400;2022-07-10T03:09:35;15.60;99.90
23697;DHT22;48864;50.820;4.400;2022-07-10T03:12:04;15.70;99.90
23697;DHT22;48864;50.820;4.400;2022-07-10T03:14:30;15.50;99.90
23697;DHT22;48864;50.820;4.400;2022-07-10T03:16:56;15.60;99.90
23697;DHT22;48864;50.820;4.400;2022-07-10T03:19:21;15.60;99.90
23697;DHT22;48864;50.820;4.400;2022-07-10T03:21:47;15.60;99.90
23697;DHT22;48864;50.820;4.400;2022-07-10T03:24:12;15.60;99.90
23697;DHT22;48864;50.820;4.400;2022-07-10T03:26:38;15.60;99.90
23697;DHT22;48864;50.820;4.400;2022-07-10T03:29:04;15.60;99.90
23697;DHT22;48864;50.820;4.400;2022-07-10T03:31:29;15.60;99.90
23697;DHT22;48864;50.820;4.400;2022-07-10T03:33:55;15.50;99.90
23697;DHT22;48864;50.820;4.400;2022-07-10T03:36:20;15.40;99.90
23697;DHT22;48864;50.820;4.400;2022-07-10T03:38:46;15.50;99.90
23697;DHT22;48864;50.820;4.400;2022-07-10T03:41:13;15.40;99.90
23697;DHT22;48864;50.820;4.400;2022-07-10T03:43:38;15.50;99.90
23697;DHT22;48864;50.820;4.400;2022-07-10T03:46:04;15.40;99.90
23697;DHT22;48864;50.820;4.400;2022-07-10T03:48:29;15.40;99.90
23697;DHT22;48864;50.820;4.400;2022-07-10T03:50:55;15.40;99.90
23697;DHT22;48864;50.820;4.400;2022-07-10T03:53:20;15.40;99.90
23697;DHT22;48864;50.820;4.400;2022-07-10T03:55:46;15.50;99.90
23697;DHT22;48864;50.820;4.400;2022-07-10T03:58:12;15.50;99.90
23697;DHT22;48864;50.820;4.400;2022-07-10T04:00:37;15.60;99.90
23697;DHT22;48864;50.820;4.400;2022-07-10T04:03:07;15.60;99.90
23697;DHT22;48864;50.820;4.400;2022-07-10T04:05:33;15.60;99.90
23697;DHT22;48864;50.820;4.400;2022-07-10T04:08:00;15.60;99.90
23697;DHT22;48864;50.820;4.400;2022-07-10T04:10:27;15.60;99.90
23697;DHT22;48864;50.820;4.400;2022-07-10T04:12:53;15.60;99.90
23697;DHT22;48864;50.820;4.400;2022-07-10T04:15:19;15.50;99.90
23697;DHT22;48864;50.820;4.400;2022-07-10T04:17:45;15.50;99.90
23697;DHT22;48864;50.820;4.400;2022-07-10T04:20:20;15.70;99.90
23697;DHT22;48864;50.820;4.400;2022-07-10T04:22:46;15.60;99.90
23697;DHT22;48864;50.820;4.400;2022-07-10T04:25:12;15.60;99.90
23697;DHT22;48864;50.820;4.400;2022-07-10T04:27:38;15.60;99.90
23697;DHT22;48864;50.820;4.400;2022-07-10T04:30:04;15.60;99.90
23697;DHT22;48864;50.820;4.400;2022-07-10T04:32:31;15.70;99.90
23697;DHT22;48864;50.820;4.400;2022-07-10T04:34:57;15.70;99.90
23697;DHT22;48864;50.820;4.400;2022-07-10T04:37:22;15.50;99.90
23697;DHT22;48864;50.820;4.400;2022-07-10T04:39:48;15.40;99.90
23697;DHT22;48864;50.820;4.400;2022-07-10T04:42:14;15.50;99.90
23697;DHT22;48864;50.820;4.400;2022-07-10T04:44:39;15.60;99.90
23697;DHT22;48864;50.820;4.400;2022-07-10T04:47:05;15.80;99.90
23697;DHT22;48864;50.820;4.400;2022-07-10T04:49:32;15.70;99.90
23697;DHT22;48864;50.820;4.400;2022-07-10T04:51:58;15.80;99.90
23697;DHT22;48864;50.820;4.400;2022-07-10T04:54:23;15.90;99.90
23697;DHT22;48864;50.820;4.400;2022-07-10T04:56:49;15.90;99.90
23697;DHT22;48864;50.820;4.400;2022-07-10T04:59:15;15.80;99.90
23697;DHT22;48864;50.820;4.400;2022-07-10T05:01:41;16.00;99.90
23697;DHT22;48864;50.820;4.400;2022-07-10T05:04:06;16.00;99.90
23697;DHT22;48864;50.820;4.400;2022-07-10T05:06:32;16.10;99.90
23697;DHT22;48864;50.820;4.400;2022-07-10T05:08:58;16.00;99.90
23697;DHT22;48864;50.820;4.400;2022-07-10T05:11:25;16.00;99.90
23697;DHT22;48864;50.820;4.400;2022-07-10T05:13:51;16.00;99.90
23697;DHT22;48864;50.820;4.400;2022-07-10T05:16:16;16.10;99.90
23697;DHT22;48864;50.820;4.400;2022-07-10T05:18:42;16.10;99.90
23697;DHT22;48864;50.820;4.400;2022-07-10T05:21:08;16.20;99.90
23697;DHT22;48864;50.820;4.400;2022-07-10T05:23:34;16.10;99.90
23697;DHT22;48864;50.820;4.400;2022-07-10T05:26:00;16.10;99.90
23697;DHT22;48864;50.820;4.400;2022-07-10T05:28:26;16.10;99.90
23697;DHT22;48864;50.820;4.400;2022-07-10T05:30:51;16.00;99.90
23697;DHT22;48864;50.820;4.400;2022-07-10T05:33:17;16.00;99.90
23697;DHT22;48864;50.820;4.400;2022-07-10T05:35:43;16.10;99.90
23697;DHT22;48864;50.820;4.400;2022-07-10T05:38:08;16.00;99.90
23697;DHT22;48864;50.820;4.400;2022-07-10T05:40:34;16.00;99.90
23697;DHT22;48864;50.820;4.400;2022-07-10T05:43:00;16.10;99.90
23697;DHT22;48864;50.820;4.400;2022-07-10T05:45:25;16.20;99.90
23697;DHT22;48864;50.820;4.400;2022-07-10T05:47:51;16.30;99.90
23697;DHT22;48864;50.820;4.400;2022-07-10T05:50:17;16.30;99.90
23697;DHT22;48864;50.820;4.400;2022-07-10T05:52:43;16.10;99.90
23697;DHT22;48864;50.820;4.400;2022-07-10T05:55:08;15.90;99.90
23697;DHT22;48864;50.820;4.400;2022-07-10T05:57:35;15.90;99.90
23697;DHT22;48864;50.820;4.400;2022-07-10T06:00:06;15.90;99.90
23697;DHT22;48864;50.820;4.400;2022-07-10T06:02:32;16.10;99.90
23697;DHT22;48864;50.820;4.400;2022-07-10T06:04:58;16.10;99.90
23697;DHT22;48864;50.820;4.400;2022-07-10T06:07:25;16.10;99.90
23697;DHT22;48864;50.820;4.400;2022-07-10T06:09:51;16.10;99.90
23697;DHT22;48864;50.820;4.400;2022-07-10T06:12:16;16.20;99.90
23697;DHT22;48864;50.820;4.400;2022-07-10T06:14:42;16.20;99.90
23697;DHT22;48864;50.820;4.400;2022-07-10T06:17:08;16.20;99.90
23697;DHT22;48864;50.820;4.400;2022-07-10T06:19:33;16.30;99.90
23697;DHT22;48864;50.820;4.400;2022-07-10T06:21:59;16.20;99.90
23697;DHT22;48864;50.820;4.400;2022-07-10T06:24:44;16.40;99.90
23697;DHT22;48864;50.820;4.400;2022-07-10T06:27:09;16.50;99.90
23697;DHT22;48864;50.820;4.400;2022-07-10T06:29:35;16.60;99.90
23697;DHT22;48864;50.820;4.400;2022-07-10T06:32:01;16.50;99.90
23697;DHT22;48864;50.820;4.400;2022-07-10T06:34:26;16.60;99.90
23697;DHT22;48864;50.820;4.400;2022-07-10T06:36:52;16.60;99.90
23697;DHT22;48864;50.820;4.400;2022-07-10T06:39:17;16.70;99.90
23697;DHT22;48864;50.820;4.400;2022-07-10T06:41:43;16.80;99.90
23697;DHT22;48864;50.820;4.400;2022-07-10T06:44:09;16.90;99.90
23697;DHT22;48864;50.820;4.400;2022-07-10T06:46:34;17.00;99.90
23697;DHT22;48864;50.820;4.400;2022-07-10T06:49:00;17.00;99.90
23697;DHT22;48864;50.820;4.400;2022-07-10T06:51:26;17.10;99.90
23697;DHT22;48864;50.820;4.400;2022-07-10T06:53:52;17.20;99.90
23697;DHT22;48864;50.820;4.400;2022-07-10T06:56:18;17.20;99.90
23697;DHT22;48864;50.820;4.400;2022-07-10T06:58:44;17.20;99.90
23697;DHT22;48864;50.820;4.400;2022-07-10T07:01:09;17.20;99.90
23697;DHT22;48864;50.820;4.400;2022-07-10T07:03:35;17.40;99.90
23697;DHT22;48864;50.820;4.400;2022-07-10T07:06:00;17.20;99.90
23697;DHT22;48864;50.820;4.400;2022-07-10T07:08:29;17.30;99.90
23697;DHT22;48864;50.820;4.400;2022-07-10T07:10:55;17.30;99.90
23697;DHT22;48864;50.820;4.400;2022-07-10T07:13:20;17.30;99.90
23697;DHT22;48864;50.820;4.400;2022-07-10T07:15:46;17.40;99.90
23697;DHT22;48864;50.820;4.400;2022-07-10T07:18:19;17.40;99.90
23697;DHT22;48864;50.820;4.400;2022-07-10T07:20:46;17.50;99.90
23697;DHT22;48864;50.820;4.400;2022-07-10T07:23:30;17.40;99.90
23697;DHT22;48864;50.820;4.400;2022-07-10T07:25:56;17.30;99.90
23697;DHT22;48864;50.820;4.400;2022-07-10T07:28:21;17.20;99.90
23697;DHT22;48864;50.820;4.400;2022-07-10T07:30:48;17.30;99.90
23697;DHT22;48864;50.820;4.400;2022-07-10T07:33:14;17.30;99.90
23697;DHT22;48864;50.820;4.400;2022-07-10T07:35:39;17.40;99.90
23697;DHT22;48864;50.820;4.400;2022-07-10T07:38:05;17.50;99.90
23697;DHT22;48864;50.820;4.400;2022-07-10T07:40:31;17.40;99.90
23697;DHT22;48864;50.820;4.400;2022-07-10T07:42:57;17.60;99.90
23697;DHT22;48864;50.820;4.400;2022-07-10T07:45:24;17.60;99.90
23697;DHT22;48864;50.820;4.400;2022-07-10T07:47:52;17.50;99.90
23697;DHT22;48864;50.820;4.400;2022-07-10T07:50:20;17.50;99.90
23697;DHT22;48864;50.820;4.400;2022-07-10T07:52:47;17.50;99.90
23697;DHT22;48864;50.820;4.400;2022-07-10T07:55:15;17.60;99.90
23697;DHT22;48864;50.820;4.400;2022-07-10T07:57:44;17.70;99.90
23697;DHT22;48864;50.820;4.400;2022-07-10T08:00:13;17.60;99.90
23697;DHT22;48864;50.820;4.400;2022-07-10T08:02:40;17.70;99.90
23697;DHT22;48864;50.820;4.400;2022-07-10T08:05:07;17.70;99.90
23697;DHT22;48864;50.820;4.400;2022-07-10T08:07:56;17.70;99.90
23697;DHT22;48864;50.820;4.400;2022-07-10T08:10:26;17.70;99.90
23697;DHT22;48864;50.820;4.400;2022-07-10T08:12:52;17.80;99.90
23697;DHT22;48864;50.820;4.400;2022-07-10T08:15:20;17.90;99.90
23697;DHT22;48864;50.820;4.400;2022-07-10T08:17:52;18.20;99.90
23697;DHT22;48864;50.820;4.400;2022-07-10T08:20:18;18.00;99.90
23697;DHT22;48864;50.820;4.400;2022-07-10T08:22:44;18.10;99.90
23697;DHT22;48864;50.820;4.400;2022-07-10T08:25:13;18.30;99.90
23697;DHT22;48864;50.820;4.400;2022-07-10T08:27:39;18.20;99.90
23697;DHT22;48864;50.820;4.400;2022-07-10T08:30:06;18.20;99.90
23697;DHT22;48864;50.820;4.400;2022-07-10T08:32:32;18.30;99.90
23697;DHT22;48864;50.820;4.400;2022-07-10T08:34:57;18.20;99.90
23697;DHT22;48864;50.820;4.400;2022-07-10T08:37:24;18.00;99.90
23697;DHT22;48864;50.820;4.400;2022-07-10T08:39:50;18.00;99.90
23697;DHT22;48864;50.820;4.400;2022-07-10T08:42:16;18.10;99.90
23697;DHT22;48864;50.820;4.400;2022-07-10T08:44:42;18.10;99.90
23697;DHT22;48864;50.820;4.400;2022-07-10T08:47:07;18.20;99.90
23697;DHT22;48864;50.820;4.400;2022-07-10T08:49:33;18.30;99.90
23697;DHT22;48864;50.820;4.400;2022-07-10T08:52:20;18.40;99.90
23697;DHT22;48864;50.820;4.400;2022-07-10T08:54:48;18.40;99.90
23697;DHT22;48864;50.820;4.400;2022-07-10T08:57:15;18.50;99.90
23697;DHT22;48864;50.820;4.400;2022-07-10T08:59:42;18.50;99.90
23697;DHT22;48864;50.820;4.400;2022-07-10T09:02:08;18.70;99.90
23697;DHT22;48864;50.820;4.400;2022-07-10T09:04:33;19.00;99.90
23697;DHT22;48864;50.820;4.400;2022-07-10T09:06:59;19.20;99.90
23697;DHT22;48864;50.820;4.400;2022-07-10T09:09:24;19.40;99.90
23697;DHT22;48864;50.820;4.400;2022-07-10T09:12:00;19.60;99.90
23697;DHT22;48864;50.820;4.400;2022-07-10T09:14:26;19.50;99.90
23697;DHT22;48864;50.820;4.400;2022-07-10T09:16:53;19.60;99.90
23697;DHT22;48864;50.820;4.400;2022-07-10T09:21:48;19.80;99.90
23697;DHT22;48864;50.820;4.400;2022-07-10T09:24:13;19.80;99.90
23697;DHT22;48864;50.820;4.400;2022-07-10T09:26:40;20.00;99.90
23697;DHT22;48864;50.820;4.400;2022-07-10T09:29:12;20.00;99.90
23697;DHT22;48864;50.820;4.400;2022-07-10T09:31:52;20.00;99.90
23697;DHT22;48864;50.820;4.400;2022-07-10T09:34:34;20.10;99.90
23697;DHT22;48864;50.820;4.400;2022-07-10T09:39:51;20.10;99.90
23697;DHT22;48864;50.820;4.400;2022-07-10T09:42:31;20.00;99.90
23697;DHT22;48864;50.820;4.400;2022-07-10T09:45:15;20.00;99.90
23697;DHT22;48864;50.820;4.400;2022-07-10T09:47:47;20.20;99.90
23697;DHT22;48864;50.820;4.400;2022-07-10T09:50:33;20.20;99.90
23697;DHT22;48864;50.820;4.400;2022-07-10T09:53:06;20.20;99.90
23697;DHT22;48864;50.820;4.400;2022-07-10T09:55:36;20.00;99.90
23697;DHT22;48864;50.820;4.400;2022-07-10T09:58:06;19.90;99.90
23697;DHT22;48864;50.820;4.400;2022-07-10T10:00:33;19.90;99.90
23697;DHT22;48864;50.820;4.400;2022-07-10T10:03:03;20.10;99.90
23697;DHT22;48864;50.820;4.400;2022-07-10T10:05:38;20.20;99.90
23697;DHT22;48864;50.820;4.400;2022-07-10T10:08:19;20.30;99.90
23697;DHT22;48864;50.820;4.400;2022-07-10T10:10:49;20.30;99.90
23697;DHT22;48864;50.820;4.400;2022-07-10T10:13:19;20.40;99.90
23697;DHT22;48864;50.820;4.400;2022-07-10T10:15:46;20.20;99.90
23697;DHT22;48864;50.820;4.400;2022-07-10T10:18:20;20.30;99.90
23697;DHT22;48864;50.820;4.400;2022-07-10T10:20:47;20.00;99.90
23697;DHT22;48864;50.820;4.400;2022-07-10T10:23:14;19.90;99.90
23697;DHT22;48864;50.820;4.400;2022-07-10T10:25:50;20.00;99.90
23697;DHT22;48864;50.820;4.400;2022-07-10T10:28:17;20.00;99.90
23697;DHT22;48864;50.820;4.400;2022-07-10T10:30:53;20.10;99.90
23697;DHT22;48864;50.820;4.400;2022-07-10T10:35:59;20.10;99.90
23697;DHT22;48864;50.820;4.400;2022-07-10T10:38:34;20.00;99.90
23697;DHT22;48864;50.820;4.400;2022-07-10T10:41:27;20.10;99.90
23697;DHT22;48864;50.820;4.400;2022-07-10T10:49:19;20.20;99.90
23697;DHT22;48864;50.820;4.400;2022-07-10T10:54:24;19.90;99.90
23697;DHT22;48864;50.820;4.400;2022-07-10T10:59:53;20.10;99.90
23697;DHT22;48864;50.820;4.400;2022-07-10T11:02:21;20.30;99.90
23697;DHT22;48864;50.820;4.400;2022-07-10T11:04:49;20.40;99.90
23697;DHT22;48864;50.820;4.400;2022-07-10T11:10:42;20.50;99.90
23697;DHT22;48864;50.820;4.400;2022-07-10T11:13:12;20.40;99.90
23697;DHT22;48864;50.820;4.400;2022-07-10T11:15:43;20.50;99.90
23697;DHT22;48864;50.820;4.400;2022-07-10T11:18:11;20.60;99.90
23697;DHT22;48864;50.820;4.400;2022-07-10T11:20:50;20.70;99.90
23697;DHT22;48864;50.820;4.400;2022-07-10T11:26:11;20.80;99.90
23697;DHT22;48864;50.820;4.400;2022-07-10T11:31:13;20.60;99.90
23697;DHT22;48864;50.820;4.400;2022-07-10T11:33:43;20.70;99.90
23697;DHT22;48864;50.820;4.400;2022-07-10T11:36:14;20.80;99.90
23697;DHT22;48864;50.820;4.400;2022-07-10T11:38:41;21.00;99.90
23697;DHT22;48864;50.820;4.400;2022-07-10T11:41:15;21.10;99.90
23697;DHT22;48864;50.820;4.400;2022-07-10T11:43:58;21.20;99.90
23697;DHT22;48864;50.820;4.400;2022-07-10T11:46:31;21.30;99.90
23697;DHT22;48864;50.820;4.400;2022-07-10T11:48:58;21.30;99.90
23697;DHT22;48864;50.820;4.400;2022-07-10T11:51:35;21.20;99.90
23697;DHT22;48864;50.820;4.400;2022-07-10T11:54:13;21.20;99.90
23697;DHT22;48864;50.820;4.400;2022-07-10T11:56:42;21.20;99.90
23697;DHT22;48864;50.820;4.400;2022-07-10T11:59:13;21.30;99.90
23697;DHT22;48864;50.820;4.400;2022-07-10T12:01:47;21.40;99.90
23697;DHT22;48864;50.820;4.400;2022-07-10T12:04:14;21.40;99.90
23697;DHT22;48864;50.820;4.400;2022-07-10T12:06:46;21.50;99.90
23697;DHT22;48864;50.820;4.400;2022-07-10T12:09:14;21.30;99.90
23697;DHT22;48864;50.820;4.400;2022-07-10T12:11:41;21.10;99.90
23697;DHT22;48864;50.820;4.400;2022-07-10T12:14:16;21.10;99.90
23697;DHT22;48864;50.820;4.400;2022-07-10T12:16:46;21.30;99.90
23697;DHT22;48864;50.820;4.400;2022-07-10T12:19:14;21.40;99.90
23697;DHT22;48864;50.820;4.400;2022-07-10T12:21:43;21.50;99.90
23697;DHT22;48864;50.820;4.400;2022-07-10T12:24:10;21.60;99.90
23697;DHT22;48864;50.820;4.400;2022-07-10T12:26:37;21.70;99.90
23697;DHT22;48864;50.820;4.400;2022-07-10T12:29:04;21.80;99.90
23697;DHT22;48864;50.820;4.400;2022-07-10T12:31:32;21.90;99.90
23697;DHT22;48864;50.820;4.400;2022-07-10T12:34:03;21.90;99.90
23697;DHT22;48864;50.820;4.400;2022-07-10T12:36:50;21.90;99.90
23697;DHT22;48864;50.820;4.400;2022-07-10T12:39:25;22.00;99.90
23697;DHT22;48864;50.820;4.400;2022-07-10T12:42:01;22.10;99.90
23697;DHT22;48864;50.820;4.400;2022-07-10T12:44:53;22.30;99.90
23697;DHT22;48864;50.820;4.400;2022-07-10T12:47:20;22.40;99.90
23697;DHT22;48864;50.820;4.400;2022-07-10T12:52:24;22.20;99.90
23697;DHT22;48864;50.820;4.400;2022-07-10T12:55:06;22.10;99.90
23697;DHT22;48864;50.820;4.400;2022-07-10T12:57:58;22.10;99.90
23697;DHT22;48864;50.820;4.400;2022-07-10T13:00:33;22.10;99.90
23697;DHT22;48864;50.820;4.400;2022-07-10T13:03:07;22.20;99.90
23697;DHT22;48864;50.820;4.400;2022-07-10T13:05:36;22.20;99.90
23697;DHT22;48864;50.820;4.400;2022-07-10T13:11:00;22.50;99.90
23697;DHT22;48864;50.820;4.400;2022-07-10T13:13:27;22.70;99.90
23697;DHT22;48864;50.820;4.400;2022-07-10T13:15:54;22.70;99.90
23697;DHT22;48864;50.820;4.400;2022-07-10T13:18:21;22.80;99.90
23697;DHT22;48864;50.820;4.400;2022-07-10T13:20:48;22.90;99.90
23697;DHT22;48864;50.820;4.400;2022-07-10T13:23:14;23.10;99.90
23697;DHT22;48864;50.820;4.400;2022-07-10T13:25:41;23.20;99.90
23697;DHT22;48864;50.820;4.400;2022-07-10T13:28:08;23.20;99.90
23697;DHT22;48864;50.820;4.400;2022-07-10T13:30:34;23.30;99.90
23697;DHT22;48864;50.820;4.400;2022-07-10T13:33:00;23.50;99.90
23697;DHT22;48864;50.820;4.400;2022-07-10T13:35:30;23.70;99.90
23697;DHT22;48864;50.820;4.400;2022-07-10T13:37:57;23.70;99.90
23697;DHT22;48864;50.820;4.400;2022-07-10T13:40:26;23.80;99.90
23697;DHT22;48864;50.820;4.400;2022-07-10T13:42:51;24.00;99.90
23697;DHT22;48864;50.820;4.400;2022-07-10T13:45:18;23.90;99.90
23697;DHT22;48864;50.820;4.400;2022-07-10T13:47:44;23.90;99.90
23697;DHT22;48864;50.820;4.400;2022-07-10T13:50:09;24.00;99.90
23697;DHT22;48864;50.820;4.400;2022-07-10T13:52:35;24.00;99.90
23697;DHT22;48864;50.820;4.400;2022-07-10T13:55:00;24.10;99.90
23697;DHT22;48864;50.820;4.400;2022-07-10T13:57:26;24.30;99.90
23697;DHT22;48864;50.820;4.400;2022-07-10T13:59:53;24.30;99.90
23697;DHT22;48864;50.820;4.400;2022-07-10T14:02:19;24.20;99.90
23697;DHT22;48864;50.820;4.400;2022-07-10T14:04:45;23.80;99.90
23697;DHT22;48864;50.820;4.400;2022-07-10T14:07:11;23.80;99.90
23697;DHT22;48864;50.820;4.400;2022-07-10T14:09:36;23.90;99.90
23697;DHT22;48864;50.820;4.400;2022-07-10T14:12:02;24.00;99.90
23697;DHT22;48864;50.820;4.400;2022-07-10T14:14:28;23.90;99.90
23697;DHT22;48864;50.820;4.400;2022-07-10T14:16:53;24.00;99.90
23697;DHT22;48864;50.820;4.400;2022-07-10T14:19:19;24.10;99.90
23697;DHT22;48864;50.820;4.400;2022-07-10T14:21:44;24.10;99.90
23697;DHT22;48864;50.820;4.400;2022-07-10T14:24:10;24.10;99.90
23697;DHT22;48864;50.820;4.400;2022-07-10T14:26:36;24.10;99.90
23697;DHT22;48864;50.820;4.400;2022-07-10T14:29:03;24.20;99.90
23697;DHT22;48864;50.820;4.400;2022-07-10T14:31:28;24.20;99.90
23697;DHT22;48864;50.820;4.400;2022-07-10T14:33:54;24.50;99.90
23697;DHT22;48864;50.820;4.400;2022-07-10T14:36:20;24.60;99.90
23697;DHT22;48864;50.820;4.400;2022-07-10T14:41:23;24.10;99.90
23697;DHT22;48864;50.820;4.400;2022-07-10T14:43:50;24.00;99.90
23697;DHT22;48864;50.820;4.400;2022-07-10T14:46:15;23.90;99.90
23697;DHT22;48864;50.820;4.400;2022-07-10T14:48:41;24.00;99.90
23697;DHT22;48864;50.820;4.400;2022-07-10T14:51:06;24.10;99.90
23697;DHT22;48864;50.820;4.400;2022-07-10T14:53:33;24.10;99.90
23697;DHT22;48864;50.820;4.400;2022-07-10T14:56:04;24.20;99.90
23697;DHT22;48864;50.820;4.400;2022-07-10T14:58:30;24.50;99.90
23697;DHT22;48864;50.820;4.400;2022-07-10T15:00:55;24.60;99.90
23697;DHT22;48864;50.820;4.400;2022-07-10T15:03:21;24.70;99.90
23697;DHT22;48864;50.820;4.400;2022-07-10T15:05:47;24.60;99.90
23697;DHT22;48864;50.820;4.400;2022-07-10T15:08:12;24.80;99.90
23697;DHT22;48864;50.820;4.400;2022-07-10T15:10:40;24.70;99.90
23697;DHT22;48864;50.820;4.400;2022-07-10T15:13:07;24.80;99.90
23697;DHT22;48864;50.820;4.400;2022-07-10T15:15:33;24.70;99.90
23697;DHT22;48864;50.820;4.400;2022-07-10T15:17:59;24.70;99.90
23697;DHT22;48864;50.820;4.400;2022-07-10T15:20:24;24.50;99.90
23697;DHT22;48864;50.820;4.400;2022-07-10T15:22:50;24.30;99.90
23697;DHT22;48864;50.820;4.400;2022-07-10T15:25:15;24.40;99.90
23697;DHT22;48864;50.820;4.400;2022-07-10T15:27:41;24.50;99.90
23697;DHT22;48864;50.820;4.400;2022-07-10T15:30:08;24.30;99.90
23697;DHT22;48864;50.820;4.400;2022-07-10T15:32:36;24.20;99.90
23697;DHT22;48864;50.820;4.400;2022-07-10T15:35:02;24.00;99.90
23697;DHT22;48864;50.820;4.400;2022-07-10T15:37:28;24.20;99.90
23697;DHT22;48864;50.820;4.400;2022-07-10T15:39:54;24.50;99.90
23697;DHT22;48864;50.820;4.400;2022-07-10T15:42:20;24.60;99.90
23697;DHT22;48864;50.820;4.400;2022-07-10T15:44:45;24.70;99.90
23697;DHT22;48864;50.820;4.400;2022-07-10T15:47:11;24.60;99.90
23697;DHT22;48864;50.820;4.400;2022-07-10T15:49:37;24.40;99.90
23697;DHT22;48864;50.820;4.400;2022-07-10T15:52:03;24.50;99.90
23697;DHT22;48864;50.820;4.400;2022-07-10T15:54:29;24.50;99.90
23697;DHT22;48864;50.820;4.400;2022-07-10T15:56:55;24.50;99.90
23697;DHT22;48864;50.820;4.400;2022-07-10T15:59:21;24.50;99.90
23697;DHT22;48864;50.820;4.400;2022-07-10T16:01:53;24.50;99.90
23697;DHT22;48864;50.820;4.400;2022-07-10T16:04:20;24.50;99.90
23697;DHT22;48864;50.820;4.400;2022-07-10T16:07:14;24.30;99.90
23697;DHT22;48864;50.820;4.400;2022-07-10T16:09:39;24.40;99.90
23697;DHT22;48864;50.820;4.400;2022-07-10T16:12:05;24.20;99.90